Time;durP1;ratioP1;P1;durP2;ratioP2;P2;SDS_P1;SDS_P2;PMS_P1;PMS_P2;Temp;Humidity;BMP_temperature;BMP_pressure;BME280_temperature;BME280_humidity;BME280_pressure;Samples;Min_cycle;Max_cycle;Signal;HPM_P1;HPM_P2
2021/04/30 00:01:32;;;;;;;2.08;1.77;;;;;;;11.74;100.00;98656.59;5093584;28;20483;-77
2021/04/30 00:03:58;;;;;;;0.82;0.82;;;;;;;11.97;100.00;98676.81;5093592;28;20039;-77
2021/04/30 00:06:23;;;;;;;3.13;1.65;;;;;;;11.95;100.00;98668.19;5093703;28;20103;-75
2021/04/30 00:08:49;;;;;;;1.58;1.45;;;;;;;11.67;100.00;98629.13;5093233;28;20547;-76
2021/04/30 00:11:14;;;;;;;2.30;2.15;;;;;;;11.83;100.00;98665.00;5093274;28;20035;-76
2021/04/30 00:13:40;;;;;;;1.38;1.35;;;;;;;11.64;100.00;98632.78;5093088;28;20032;-77
2021/04/30 00:16:06;;;;;;;1.85;1.67;;;;;;;11.57;100.00;98627.50;5093574;28;20063;-75
2021/04/30 00:18:32;;;;;;;1.05;1.05;;;;;;;11.56;100.00;98611.31;5093414;28;20471;-75
2021/04/30 00:21:00;;;;;;;2.30;2.13;;;;;;;11.53;100.00;98606.66;5092798;28;20110;-78
2021/04/30 00:23:26;;;;;;;1.23;1.15;;;;;;;11.63;100.00;98641.53;5093286;28;20491;-74
2021/04/30 00:25:55;;;;;;;1.35;1.30;;;;;;;11.97;100.00;98696.97;5093291;28;20024;-77
2021/04/30 00:28:22;;;;;;;1.38;1.27;;;;;;;11.96;100.00;98680.81;5093415;28;20028;-78
2021/04/30 00:30:48;;;;;;;1.88;1.77;;;;;;;12.00;100.00;98664.84;5092762;28;20047;-77
2021/04/30 00:33:14;;;;;;;2.30;1.17;;;;;;;12.19;100.00;98691.50;5093023;28;20399;-76
2021/04/30 00:35:41;;;;;;;1.98;1.88;;;;;;;11.95;100.00;98640.50;5093481;28;20119;-77
2021/04/30 00:38:07;;;;;;;1.50;1.40;;;;;;;11.95;100.00;98654.34;5092759;28;20061;-77
2021/04/30 00:40:32;;;;;;;2.08;1.63;;;;;;;12.12;100.00;98664.81;5092929;28;20031;-77
2021/04/30 00:42:58;;;;;;;1.73;1.63;;;;;;;11.94;100.00;98644.47;5093034;28;20066;-77
2021/04/30 00:45:24;;;;;;;15.13;2.55;;;;;;;12.15;100.00;98702.69;5092965;28;20072;-76
2021/04/30 00:47:51;;;;;;;0.98;0.85;;;;;;;11.86;100.00;98641.19;5092908;28;20024;-76
2021/04/30 00:50:19;;;;;;;0.97;0.97;;;;;;;12.11;100.00;98671.59;5092818;28;20032;-78
2021/04/30 00:52:44;;;;;;;2.00;1.70;;;;;;;12.11;100.00;98681.91;5092590;28;20024;-76
2021/04/30 00:55:13;;;;;;;1.63;1.52;;;;;;;12.14;100.00;98698.38;5092716;28;20107;-76
2021/04/30 00:57:44;;;;;;;2.03;1.92;;;;;;;12.15;100.00;98685.31;5092634;28;20156;-75
2021/04/30 01:00:10;;;;;;;1.60;1.30;;;;;;;12.24;100.00;98707.53;5092461;28;20031;-78
2021/04/30 01:02:38;;;;;;;3.20;1.35;;;;;;;11.82;100.00;98662.66;5093120;28;20425;-79
2021/04/30 01:05:04;;;;;;;2.67;2.47;;;;;;;11.93;100.00;98638.19;5092795;28;20107;-80
2021/04/30 01:07:30;;;;;;;1.20;1.20;;;;;;;12.12;100.00;98677.88;5092443;28;20043;-77
2021/04/30 01:09:56;;;;;;;5.40;3.28;;;;;;;12.21;100.00;98686.28;5092612;28;20020;-76
2021/04/30 01:12:22;;;;;;;1.73;1.70;;;;;;;12.10;100.00;98688.66;5092713;28;20036;-76
2021/04/30 01:14:48;;;;;;;4.20;3.00;;;;;;;12.31;100.00;98703.75;5092455;28;20066;-76
2021/04/30 01:17:13;;;;;;;2.17;1.50;;;;;;;11.93;100.00;98634.66;5092347;28;20024;-76
2021/04/30 01:19:39;;;;;;;1.67;1.60;;;;;;;12.37;100.00;98710.28;5092539;28;20032;-78
2021/04/30 01:22:04;;;;;;;1.15;1.10;;;;;;;12.06;100.00;98674.91;5092353;28;20063;-78
2021/04/30 01:24:30;;;;;;;2.58;1.98;;;;;;;12.32;100.00;98694.22;5092707;28;20020;-78
2021/04/30 01:26:56;;;;;;;3.38;1.75;;;;;;;12.19;100.00;98695.03;5093305;28;20039;-77
2021/04/30 01:29:22;;;;;;;3.97;2.13;;;;;;;12.42;100.00;98712.47;5092251;28;20028;-77
2021/04/30 01:31:47;;;;;;;1.02;1.02;;;;;;;12.37;100.00;98711.06;5092789;28;20054;-78
2021/04/30 01:34:13;;;;;;;2.13;2.03;;;;;;;12.37;100.00;98713.03;5092189;28;20032;-78
2021/04/30 01:36:40;;;;;;;1.33;1.17;;;;;;;12.37;100.00;98713.81;5092137;28;20035;-77
2021/04/30 01:39:08;;;;;;;1.15;1.05;;;;;;;12.43;100.00;98722.34;5092277;28;20442;-78
2021/04/30 01:41:36;;;;;;;1.60;1.50;;;;;;;12.19;100.00;98678.41;5092782;28;20389;-78
2021/04/30 01:44:06;;;;;;;1.45;1.35;;;;;;;12.29;100.00;98695.13;5092211;28;20024;-79
2021/04/30 01:46:32;;;;;;;1.63;1.48;;;;;;;12.36;100.00;98720.59;5092109;28;20028;-77
2021/04/30 01:48:57;;;;;;;2.30;2.10;;;;;;;12.44;100.00;98723.91;5091961;28;20035;-78
2021/04/30 01:51:23;;;;;;;2.00;1.85;;;;;;;12.33;100.00;98709.63;5092661;28;20120;-78
2021/04/30 01:53:48;;;;;;;1.38;1.15;;;;;;;12.06;100.00;98690.75;5092181;28;20048;-78
2021/04/30 01:56:14;;;;;;;1.55;1.52;;;;;;;12.39;100.00;98747.41;5092132;28;20081;-78
2021/04/30 01:58:41;;;;;;;0.95;0.95;;;;;;;12.03;100.00;98677.81;5092012;28;20028;-79
2021/04/30 02:01:07;;;;;;;37.53;2.03;;;;;;;12.44;100.00;98721.13;5092675;28;20039;-77
2021/04/30 02:03:33;;;;;;;0.95;0.95;;;;;;;12.16;100.00;98673.00;5092156;28;20028;-78
2021/04/30 02:05:59;;;;;;;0.50;0.50;;;;;;;12.34;100.00;98702.88;5092066;28;20032;-77
2021/04/30 02:08:25;;;;;;;1.30;1.20;;;;;;;12.19;100.00;98672.88;5092125;28;20024;-80
2021/04/30 02:10:51;;;;;;;0.65;0.65;;;;;;;12.48;100.00;98722.53;5091859;28;20024;-77
2021/04/30 02:13:18;;;;;;;7.18;3.45;;;;;;;12.21;100.00;98689.84;5093931;28;20032;-78
2021/04/30 02:15:46;;;;;;;4.13;3.83;;;;;;;12.50;100.00;98724.88;5096218;28;20032;-78
2021/04/30 02:18:11;;;;;;;1.42;1.33;;;;;;;12.22;100.00;98683.09;5095721;28;20070;-78
2021/04/30 02:20:37;;;;;;;2.95;2.13;;;;;;;12.17;100.00;98677.34;5095626;28;20071;-77
2021/04/30 02:23:03;;;;;;;1.30;1.27;;;;;;;12.63;100.00;98718.06;5095680;28;20020;-78
2021/04/30 02:25:29;;;;;;;2.35;1.83;;;;;;;12.56;100.00;98718.31;5095343;28;20096;-77
2021/04/30 02:27:57;;;;;;;1.52;1.08;;;;;;;12.70;100.00;98717.03;5095500;28;20024;-76
2021/04/30 02:30:24;;;;;;;1.13;0.93;;;;;;;12.64;100.00;98710.53;5095150;28;20051;-76
2021/04/30 02:32:50;;;;;;;1.83;1.73;;;;;;;12.72;100.00;98720.13;5095603;28;20128;-77
2021/04/30 02:35:26;;;;;;;1.08;0.85;;;;;;;12.48;100.00;98680.19;5095233;28;20035;-75
2021/04/30 02:37:52;;;;;;;2.00;1.42;;;;;;;12.75;100.00;98726.78;5095645;28;20019;-76
2021/04/30 02:40:21;;;;;;;0.80;0.80;;;;;;;12.61;100.00;98719.72;5095098;28;20032;-76
2021/04/30 02:42:47;;;;;;;2.42;1.90;;;;;;;12.31;100.00;98674.06;5095159;28;20036;-78
2021/04/30 02:45:15;;;;;;;2.45;2.25;;;;;;;12.26;100.00;98698.78;5095127;28;20024;-77
2021/04/30 02:47:43;;;;;;;1.23;1.23;;;;;;;12.41;100.00;98733.13;5095083;28;20050;-77
2021/04/30 02:50:09;;;;;;;0.85;0.85;;;;;;;12.23;100.00;98726.19;5095022;28;20039;-77
2021/04/30 02:52:34;;;;;;;1.85;1.67;;;;;;;11.93;100.00;98685.25;5094867;28;20127;-77
2021/04/30 02:55:00;;;;;;;4.03;3.10;;;;;;;11.84;100.00;98696.22;5095004;28;20032;-78
2021/04/30 02:57:30;;;;;;;3.75;2.00;;;;;;;12.09;100.00;98732.19;5094779;28;20028;-77
2021/04/30 02:59:55;;;;;;;2.22;1.40;;;;;;;12.03;100.00;98727.66;5095125;28;20058;-77
2021/04/30 03:02:21;;;;;;;3.15;2.40;;;;;;;12.04;100.00;98735.53;5094877;28;20437;-77
2021/04/30 03:04:46;;;;;;;1.45;1.45;;;;;;;12.11;100.00;98734.50;5095029;28;20024;-78
2021/04/30 03:07:12;;;;;;;1.33;1.27;;;;;;;11.87;100.00;98677.97;5094789;28;20039;-79
2021/04/30 03:09:37;;;;;;;0.88;0.88;;;;;;;11.87;100.00;98673.19;5094625;28;20032;-78
2021/04/30 03:12:03;;;;;;;1.70;1.58;;;;;;;12.06;100.00;98735.06;5094835;28;20060;-78
2021/04/30 03:14:29;;;;;;;1.50;1.40;;;;;;;12.00;100.00;98739.59;5095408;28;20036;-78
2021/04/30 03:16:54;;;;;;;3.75;1.55;;;;;;;12.02;100.00;98724.09;5094592;28;20483;-77
2021/04/30 03:19:20;;;;;;;1.83;1.73;;;;;;;11.61;100.00;98677.19;5094529;28;20172;-78
2021/04/30 03:21:45;;;;;;;0.90;0.90;;;;;;;11.68;100.00;98680.50;5094513;28;20024;-79
2021/04/30 03:24:11;;;;;;;1.63;1.48;;;;;;;11.93;100.00;98729.56;5093955;28;20023;-79
2021/04/30 03:26:37;;;;;;;1.67;1.58;;;;;;;11.66;100.00;98685.69;5094454;28;20020;-79
2021/04/30 03:29:03;;;;;;;2.10;1.98;;;;;;;11.64;100.00;98690.88;5094596;28;20403;-79
2021/04/30 03:31:28;;;;;;;2.47;2.35;;;;;;;11.81;100.00;98724.81;5094082;28;20506;-77
2021/04/30 03:33:54;;;;;;;0.73;0.73;;;;;;;11.59;100.00;98696.97;5094353;28;20028;-76
2021/04/30 03:36:21;;;;;;;2.30;2.20;;;;;;;11.54;100.00;98696.75;5094309;28;20063;-77
2021/04/30 03:38:47;;;;;;;0.90;0.90;;;;;;;11.72;100.00;98694.22;5094352;28;20115;-77
2021/04/30 03:41:14;;;;;;;1.42;1.30;;;;;;;12.00;100.00;98767.28;5093908;28;20024;-76
2021/04/30 03:43:39;;;;;;;14.15;2.00;;;;;;;11.97;100.00;98746.81;5093916;28;20024;-77
2021/04/30 03:46:05;;;;;;;1.27;1.27;;;;;;;11.66;100.00;98709.81;5093791;28;20077;-77
2021/04/30 03:48:31;;;;;;;3.45;2.33;;;;;;;12.19;100.00;98753.22;5093803;28;20119;-76
2021/04/30 03:50:57;;;;;;;3.15;2.55;;;;;;;11.88;100.00;98713.47;5093729;28;20035;-76
2021/04/30 03:53:23;;;;;;;1.40;1.30;;;;;;;11.95;100.00;98732.63;5093719;28;20047;-76
2021/04/30 03:55:49;;;;;;;3.05;1.80;;;;;;;12.06;100.00;98727.53;5093534;28;20066;-76
2021/04/30 03:58:15;;;;;;;3.78;2.25;;;;;;;12.21;100.00;98731.38;5093674;28;20020;-76
2021/04/30 04:00:41;;;;;;;0.73;0.73;;;;;;;12.06;100.00;98710.13;5093444;28;20032;-77
2021/04/30 04:03:06;;;;;;;2.83;2.13;;;;;;;12.27;100.00;98739.91;5093791;28;20042;-78
2021/04/30 04:05:32;;;;;;;0.75;0.75;;;;;;;12.55;100.00;98790.81;5093474;28;20119;-80
2021/04/30 04:07:57;;;;;;;0.40;0.40;;;;;;;12.60;100.00;98788.25;5093921;28;20471;-76
2021/04/30 04:10:23;;;;;;;1.80;1.70;;;;;;;12.58;100.00;98781.63;5093383;28;20032;-80
2021/04/30 04:12:48;;;;;;;2.13;1.67;;;;;;;12.23;100.00;98742.81;5093748;28;20063;-80
2021/04/30 04:15:16;;;;;;;3.20;1.45;;;;;;;12.60;100.00;98793.78;5093414;28;20028;-78
2021/04/30 04:17:42;;;;;;;1.48;1.35;;;;;;;12.58;100.00;98812.09;5093374;28;20028;-79
2021/04/30 04:20:08;;;;;;;1.02;1.02;;;;;;;12.68;100.00;98799.09;5093854;28;20130;-79
2021/04/30 04:22:33;;;;;;;1.33;1.23;;;;;;;12.91;100.00;98805.00;5094053;28;20056;-78
2021/04/30 04:24:59;;;;;;;0.75;0.75;;;;;;;12.86;100.00;98769.53;5093483;28;20485;-75
2021/04/30 04:27:25;;;;;;;1.05;1.05;;;;;;;13.07;99.45;98783.88;5093342;28;20062;-75
2021/04/30 04:29:50;;;;;;;0.85;0.85;;;;;;;13.32;98.69;98831.69;5093005;28;20479;-76
2021/04/30 04:32:16;;;;;;;1.45;1.45;;;;;;;13.35;98.83;98824.47;5093610;28;20031;-76
2021/04/30 04:34:42;;;;;;;2.38;2.10;;;;;;;13.21;99.11;98811.13;5093459;28;20127;-77
2021/04/30 04:37:07;;;;;;;1.77;1.67;;;;;;;12.88;100.00;98794.81;5092262;28;20100;-77
2021/04/30 04:39:33;;;;;;;1.08;1.08;;;;;;;13.16;99.61;98808.91;5093771;28;20050;-75
2021/04/30 04:42:03;;;;;;;2.05;1.33;;;;;;;13.43;99.21;98812.69;5092950;28;20372;-76
2021/04/30 04:44:29;;;;;;;1.65;1.55;;;;;;;13.48;98.85;98797.44;5093090;28;20380;-77
2021/04/30 04:46:56;;;;;;;2.10;1.95;;;;;;;13.72;97.42;98783.84;5092705;28;20035;-73
2021/04/30 04:49:21;;;;;;;1.20;1.20;;;;;;;14.18;96.50;98818.13;5092517;28;20105;-78
2021/04/30 04:51:47;;;;;;;2.30;2.10;;;;;;;15.33;91.35;98819.22;5092932;28;20028;-75
2021/04/30 04:54:12;;;;;;;2.22;2.08;;;;;;;16.96;83.48;98833.00;5092283;28;20039;-79
2021/04/30 04:56:38;;;;;;;1.65;1.55;;;;;;;19.06;75.77;98797.78;5092540;28;20483;-78
2021/04/30 04:59:03;;;;;;;2.60;1.13;;;;;;;20.80;69.67;98837.25;5092831;28;20043;-81
2021/04/30 05:01:29;;;;;;;1.23;1.15;;;;;;;20.88;67.46;98841.91;5092346;28;20028;-79
2021/04/30 05:03:54;;;;;;;4.80;1.23;;;;;;;21.25;67.42;98836.22;5092415;28;20119;-80
2021/04/30 05:06:20;;;;;;;1.52;1.05;;;;;;;21.61;64.93;98833.75;5092959;28;20024;-79
2021/04/30 05:08:45;;;;;;;0.85;0.80;;;;;;;22.56;63.13;98829.66;5092342;28;20028;-78
2021/04/30 05:11:11;;;;;;;1.02;1.02;;;;;;;22.98;59.15;98788.31;5092324;28;20027;-78
2021/04/30 05:13:36;;;;;;;0.88;0.88;;;;;;;23.94;56.04;98799.28;5092324;28;20103;-79
2021/04/30 05:16:03;;;;;;;4.47;1.50;;;;;;;24.15;55.26;98808.09;5092209;28;20028;-80
2021/04/30 05:18:30;;;;;;;1.52;1.42;;;;;;;24.40;54.00;98828.69;5092319;28;20042;-79
2021/04/30 05:20:56;;;;;;;4.05;1.75;;;;;;;23.74;54.71;98796.13;5092391;28;20110;-79
2021/04/30 05:23:22;;;;;;;1.33;1.20;;;;;;;24.95;52.90;98787.78;5092288;28;20120;-80
2021/04/30 05:25:51;;;;;;;5.40;1.55;;;;;;;26.09;50.65;98812.63;5092023;28;20039;-79
2021/04/30 05:28:17;;;;;;;1.08;1.05;;;;;;;26.96;49.09;98829.88;5092430;28;20407;-80
2021/04/30 05:30:42;;;;;;;0.75;0.75;;;;;;;27.81;47.43;98825.47;5091677;28;20044;-80
2021/04/30 05:33:08;;;;;;;2.33;1.00;;;;;;;27.94;46.20;98828.25;5091668;28;20040;-78
2021/04/30 05:35:33;;;;;;;1.15;1.05;;;;;;;27.96;46.85;98816.34;5091959;28;20031;-82
2021/04/30 05:37:59;;;;;;;2.05;1.20;;;;;;;27.28;45.28;98846.75;5091971;28;20035;-82
2021/04/30 05:40:27;;;;;;;1.75;1.40;;;;;;;26.41;47.47;98837.34;5093293;28;20028;-82
2021/04/30 05:42:53;;;;;;;1.30;0.82;;;;;;;24.96;50.46;98840.16;5092316;28;20093;-81
2021/04/30 05:45:18;;;;;;;0.68;0.68;;;;;;;24.15;51.91;98835.56;5092019;28;20032;-80
2021/04/30 05:47:44;;;;;;;1.80;1.65;;;;;;;23.49;54.80;98792.44;5094311;28;20131;-79
2021/04/30 05:50:11;;;;;;;1.38;1.27;;;;;;;23.44;54.56;98791.16;5096315;28;20077;-78
2021/04/30 05:52:36;;;;;;;7.78;2.20;;;;;;;23.58;54.43;98803.41;5096056;28;20039;-81
2021/04/30 05:55:04;;;;;;;1.17;1.02;;;;;;;24.05;53.35;98775.84;5095537;28;20028;-80
2021/04/30 05:57:29;;;;;;;1.65;1.55;;;;;;;26.30;48.04;98818.47;5095878;28;20036;-79
2021/04/30 05:59:55;;;;;;;4.07;1.40;;;;;;;25.56;49.83;98820.09;5095599;28;20070;-78
2021/04/30 06:02:20;;;;;;;0.65;0.65;;;;;;;26.59;47.63;98805.31;5095460;28;20081;-75
2021/04/30 06:04:46;;;;;;;1.25;1.25;;;;;;;25.87;49.05;98808.09;5095248;28;20024;-75
2021/04/30 06:07:11;;;;;;;2.50;1.13;;;;;;;25.10;51.12;98815.59;5095997;28;20123;-74
2021/04/30 06:09:36;;;;;;;2.35;1.33;;;;;;;24.53;53.66;98814.69;5095466;28;20035;-74
2021/04/30 06:12:02;;;;;;;3.28;1.70;;;;;;;24.59;53.77;98811.81;5095703;28;20020;-74
2021/04/30 06:14:32;;;;;;;0.57;0.47;;;;;;;26.36;50.25;98813.47;5095065;28;20024;-74
2021/04/30 06:16:58;;;;;;;0.75;0.75;;;;;;;28.83;42.87;98815.91;5095017;28;20562;-74
2021/04/30 06:19:23;;;;;;;5.28;2.28;;;;;;;29.92;40.37;98815.25;5094926;28;20158;-75
2021/04/30 06:21:50;;;;;;;1.00;0.90;;;;;;;30.84;37.96;98785.38;5096107;28;20143;-77
2021/04/30 06:24:15;;;;;;;1.65;1.55;;;;;;;31.63;35.84;98795.41;5094553;28;20032;-77
2021/04/30 06:26:41;;;;;;;8.80;1.83;;;;;;;30.41;38.20;98817.75;5095373;28;20028;-78
2021/04/30 06:29:08;;;;;;;2.22;1.35;;;;;;;31.45;36.82;98811.66;5094457;28;20419;-76
2021/04/30 06:31:33;;;;;;;1.95;1.85;;;;;;;32.50;33.05;98814.38;5093957;28;20073;-77
2021/04/30 06:33:59;;;;;;;0.93;0.90;;;;;;;32.06;33.63;98811.31;5094109;28;20032;-77
2021/04/30 06:36:24;;;;;;;2.05;0.93;;;;;;;31.36;34.04;98809.38;5093959;28;20402;-77
2021/04/30 06:38:49;;;;;;;1.23;0.73;;;;;;;32.73;32.53;98809.22;5094745;28;20036;-78
2021/04/30 06:41:15;;;;;;;3.03;1.27;;;;;;;30.80;34.87;98801.38;5094698;28;20028;-77
2021/04/30 06:43:40;;;;;;;0.90;0.90;;;;;;;30.62;36.61;98791.91;5094828;28;20035;-76
2021/04/30 06:46:06;;;;;;;3.28;0.85;;;;;;;31.06;36.17;98780.97;5094932;28;20020;-76
2021/04/30 06:48:31;;;;;;;3.42;1.05;;;;;;;31.49;35.40;98792.00;5094414;28;20027;-76
2021/04/30 06:50:57;;;;;;;7.20;1.58;;;;;;;31.71;33.96;98816.09;5094412;28;20039;-77
2021/04/30 06:53:22;;;;;;;4.80;1.42;;;;;;;30.64;34.69;98818.53;5094545;28;20028;-76
2021/04/30 06:55:48;;;;;;;1.17;0.90;;;;;;;30.30;35.59;98781.84;5095558;28;20057;-77
2021/04/30 06:58:13;;;;;;;0.70;0.70;;;;;;;31.62;32.65;98818.81;5095307;28;20399;-77
2021/04/30 07:00:39;;;;;;;2.10;1.52;;;;;;;32.05;32.79;98806.94;5093775;28;20024;-76
2021/04/30 07:03:06;;;;;;;0.82;0.77;;;;;;;30.92;34.05;98823.22;5094345;28;20024;-77
2021/04/30 07:05:31;;;;;;;0.75;0.70;;;;;;;31.26;33.48;98802.78;5094270;28;20119;-75
2021/04/30 07:08:01;;;;;;;3.38;1.58;;;;;;;30.29;35.62;98799.50;5094372;28;20523;-75
2021/04/30 07:10:27;;;;;;;5.10;2.10;;;;;;;30.41;35.21;98820.59;5094166;28;20025;-75
2021/04/30 07:12:52;;;;;;;0.70;0.70;;;;;;;28.67;37.70;98812.97;5094108;28;20058;-75
2021/04/30 07:15:18;;;;;;;0.80;0.80;;;;;;;29.14;37.31;98824.06;5093997;28;20491;-75
2021/04/30 07:17:44;;;;;;;1.27;1.17;;;;;;;29.60;37.90;98818.56;5094063;28;20039;-76
2021/04/30 07:20:10;;;;;;;0.90;0.82;;;;;;;30.83;34.45;98825.91;5093855;28;20396;-78
2021/04/30 07:22:35;;;;;;;0.63;0.63;;;;;;;30.93;33.97;98804.00;5093569;28;20020;-76
2021/04/30 07:25:01;;;;;;;0.88;0.88;;;;;;;31.24;33.52;98834.00;5094239;28;20132;-75
2021/04/30 07:27:26;;;;;;;3.13;1.08;;;;;;;31.60;32.43;98827.19;5093811;28;20047;-74
2021/04/30 07:29:51;;;;;;;2.50;1.35;;;;;;;32.28;31.77;98816.09;5093628;28;20020;-75
2021/04/30 07:32:17;;;;;;;5.28;1.92;;;;;;;32.82;30.33;98827.09;5093662;28;20062;-75
2021/04/30 07:34:42;;;;;;;0.98;0.93;;;;;;;33.03;30.84;98830.31;5093176;28;20035;-75
2021/04/30 07:37:08;;;;;;;0.70;0.70;;;;;;;33.82;28.60;98831.06;5093715;28;20028;-75
2021/04/30 07:39:34;;;;;;;1.17;1.08;;;;;;;32.85;30.73;98828.78;5093344;28;20090;-75
2021/04/30 07:42:00;;;;;;;2.05;1.25;;;;;;;33.62;29.60;98830.19;5093483;28;20020;-76
2021/04/30 07:44:25;;;;;;;1.42;1.33;;;;;;;33.80;30.37;98825.19;5093991;28;20471;-75
2021/04/30 07:46:50;;;;;;;2.60;1.17;;;;;;;30.45;34.99;98826.69;5090862;28;20479;-75
2021/04/30 07:49:16;;;;;;;10.73;0.98;;;;;;;31.81;32.16;98819.09;5091506;28;20028;-75
2021/04/30 07:51:41;;;;;;;0.77;0.77;;;;;;;32.94;30.56;98803.09;5092006;28;20074;-77
2021/04/30 07:54:07;;;;;;;0.60;0.60;;;;;;;32.63;31.70;98841.94;5092879;28;20028;-75
2021/04/30 07:56:32;;;;;;;0.77;0.77;;;;;;;32.48;31.37;98811.38;5093125;28;20035;-75
2021/04/30 07:58:58;;;;;;;0.70;0.68;;;;;;;33.18;31.45;98820.78;5092965;28;20035;-75
2021/04/30 08:01:23;;;;;;;0.80;0.80;;;;;;;30.11;35.34;98809.97;5092980;28;20027;-75
2021/04/30 08:03:49;;;;;;;2.97;1.52;;;;;;;31.74;32.91;98819.91;5092925;28;20030;-76
2021/04/30 08:06:14;;;;;;;1.95;1.73;;;;;;;31.50;32.74;98810.66;5092873;28;20016;-76
2021/04/30 08:08:40;;;;;;;2.22;0.73;;;;;;;30.55;35.54;98810.56;5092948;28;20028;-75
2021/04/30 08:11:07;;;;;;;4.90;0.80;;;;;;;29.58;37.26;98809.84;5091769;28;20024;-75
2021/04/30 08:13:34;;;;;;;1.33;1.00;;;;;;;28.24;39.54;98802.22;5093108;28;20059;-75
2021/04/30 08:15:59;;;;;;;2.60;0.88;;;;;;;27.58;42.51;98806.66;5093096;28;20036;-75
2021/04/30 08:18:25;;;;;;;1.02;0.80;;;;;;;26.65;44.89;98801.06;5092943;28;20464;-75
2021/04/30 08:20:50;;;;;;;1.00;1.00;;;;;;;26.46;47.01;98805.31;5092915;28;20114;-75
2021/04/30 08:23:16;;;;;;;1.05;1.05;;;;;;;26.37;45.25;98800.84;5092811;28;20493;-75
2021/04/30 08:25:41;;;;;;;2.38;1.80;;;;;;;25.20;47.19;98785.63;5092814;28;20024;-74
2021/04/30 08:28:07;;;;;;;1.33;1.23;;;;;;;24.94;51.58;98789.06;5091664;28;20084;-73
2021/04/30 08:30:32;;;;;;;1.20;1.17;;;;;;;24.87;50.96;98769.09;5091634;28;20100;-75
2021/04/30 08:32:58;;;;;;;0.85;0.85;;;;;;;25.43;49.37;98769.13;5091259;28;20082;-75
2021/04/30 08:35:23;;;;;;;1.50;0.77;;;;;;;25.40;51.10;98782.28;5092410;28;20031;-73
2021/04/30 08:37:49;;;;;;;3.85;1.60;;;;;;;24.71;49.52;98763.09;5092440;28;20024;-74
2021/04/30 08:40:14;;;;;;;1.08;1.00;;;;;;;24.47;51.91;98743.38;5093724;28;20038;-74
2021/04/30 08:42:40;;;;;;;4.40;2.03;;;;;;;24.66;51.32;98730.03;5092139;28;20035;-75
2021/04/30 08:45:11;;;;;;;2.13;1.33;;;;;;;25.13;51.01;98758.75;5092431;28;20084;-74
2021/04/30 08:47:37;;;;;;;0.85;0.85;;;;;;;24.59;50.10;98755.31;5092093;28;20048;-73
2021/04/30 08:50:03;;;;;;;9.48;2.33;;;;;;;23.78;51.52;98759.91;5092721;28;20032;-72
2021/04/30 08:52:29;;;;;;;2.33;2.13;;;;;;;24.09;50.83;98736.03;5092161;28;20027;-75
2021/04/30 08:54:57;;;;;;;1.83;1.73;;;;;;;24.62;52.03;98740.88;5092398;28;20407;-74
2021/04/30 08:57:25;;;;;;;2.08;1.70;;;;;;;24.35;50.60;98730.66;5091964;28;20024;-73
2021/04/30 09:00:01;;;;;;;1.15;1.13;;;;;;;24.27;50.82;98715.59;5092180;28;20036;-75
2021/04/30 09:02:37;;;;;;;2.78;1.83;;;;;;;24.38;52.14;98717.53;5092440;28;20020;-76
2021/04/30 09:05:04;;;;;;;4.28;1.67;;;;;;;24.25;52.77;98737.94;5091957;28;20060;-76
2021/04/30 09:07:31;;;;;;;1.83;1.33;;;;;;;24.40;53.32;98732.66;5092602;28;20020;-73
2021/04/30 09:10:05;;;;;;;4.37;1.73;;;;;;;24.47;51.65;98712.31;5092026;28;20479;-73
2021/04/30 09:12:31;;;;;;;1.42;1.33;;;;;;;24.38;51.44;98740.13;5092445;28;20024;-74
2021/04/30 09:14:58;;;;;;;2.03;1.33;;;;;;;24.27;52.45;98705.06;5091906;28;20028;-73
2021/04/30 09:17:24;;;;;;;1.20;1.13;;;;;;;24.53;49.96;98706.59;5091682;28;20504;-73
2021/04/30 09:19:55;;;;;;;5.55;2.00;;;;;;;23.98;50.85;98672.00;5091937;28;20074;-74
2021/04/30 09:22:24;;;;;;;2.40;1.40;;;;;;;24.22;49.74;98696.66;5091095;28;20111;-74
2021/04/30 09:25:05;;;;;;;15.10;2.65;;;;;;;24.31;50.27;98682.94;5091336;28;20442;-73
2021/04/30 09:27:39;;;;;;;1.13;1.13;;;;;;;24.04;50.83;98714.28;5091682;28;20024;-73
2021/04/30 09:30:17;;;;;;;10.45;0.98;;;;;;;24.52;49.65;98705.06;5091878;28;20044;-74
2021/04/30 09:33:11;;;;;;;2.80;0.70;;;;;;;24.95;51.37;98707.88;5091581;28;20048;-73
2021/04/30 09:35:47;;;;;;;3.80;0.55;;;;;;;24.97;49.13;98679.81;5091367;28;20036;-74
2021/04/30 09:38:42;;;;;;;0.85;0.85;;;;;;;24.90;48.43;98686.06;5092466;28;20024;-73
2021/04/30 09:41:11;;;;;;;1.15;1.05;;;;;;;24.90;48.98;98681.19;5086982;28;20036;-73
2021/04/30 09:43:45;;;;;;;0.68;0.68;;;;;;;25.22;47.72;98703.84;5091884;28;20032;-74
2021/04/30 09:46:28;;;;;;;1.35;1.08;;;;;;;24.90;48.18;98697.38;5091182;28;20039;-74
2021/04/30 09:49:02;;;;;;;0.40;0.40;;;;;;;25.19;48.01;98675.91;5091689;28;20506;-74
2021/04/30 09:51:51;;;;;;;0.70;0.70;;;;;;;24.60;47.45;98655.88;5091577;28;20055;-75
2021/04/30 09:54:27;;;;;;;1.55;1.35;;;;;;;25.09;48.17;98653.66;5092227;28;20028;-74
2021/04/30 09:57:23;;;;;;;0.50;0.50;;;;;;;25.94;45.11;98694.19;5092312;28;20036;-75
2021/04/30 09:59:52;;;;;;;0.63;0.63;;;;;;;25.77;43.94;98685.25;5092251;28;20039;-74
2021/04/30 10:02:20;;;;;;;1.67;0.50;;;;;;;25.24;43.81;98655.25;5091631;28;20092;-75
2021/04/30 10:04:49;;;;;;;1.52;0.80;;;;;;;25.18;44.46;98609.34;5091520;28;20167;-75
2021/04/30 10:07:24;;;;;;;0.90;0.52;;;;;;;26.16;45.44;98667.53;5091158;28;20377;-76
2021/04/30 10:10:00;;;;;;;1.00;0.90;;;;;;;25.69;43.27;98638.31;5091228;28;20036;-75
2021/04/30 10:12:27;;;;;;;0.52;0.52;;;;;;;25.52;43.35;98627.25;5092203;28;20024;-74
2021/04/30 10:14:54;;;;;;;1.42;1.33;;;;;;;25.54;46.26;98638.81;5091760;28;20404;-75
2021/04/30 10:17:20;;;;;;;1.00;0.85;;;;;;;25.91;44.07;98627.34;5091492;28;20113;-75
2021/04/30 10:19:47;;;;;;;0.43;0.43;;;;;;;26.00;43.67;98645.19;5091390;28;20491;-75
2021/04/30 10:22:24;;;;;;;2.85;1.27;;;;;;;26.28;42.09;98649.03;5091267;28;20020;-75
2021/04/30 10:24:53;;;;;;;0.98;0.68;;;;;;;26.44;42.26;98661.34;5092017;28;20122;-75
2021/04/30 10:27:41;;;;;;;0.70;0.70;;;;;;;26.32;42.41;98643.06;5091301;28;20027;-76
2021/04/30 10:30:35;;;;;;;1.90;0.70;;;;;;;26.13;41.96;98645.97;5090851;28;20052;-72
2021/04/30 10:33:17;;;;;;;0.88;0.88;;;;;;;25.51;43.86;98643.47;5090974;28;20044;-75
2021/04/30 10:35:58;;;;;;;0.73;0.73;;;;;;;25.72;44.06;98634.41;5094841;28;20110;-75
2021/04/30 10:38:29;;;;;;;1.10;1.00;;;;;;;25.57;43.78;98600.97;5085453;28;20016;-76
2021/04/30 10:41:08;;;;;;;3.25;1.50;;;;;;;25.85;43.45;98614.59;5094887;28;20084;-75
2021/04/30 10:43:34;;;;;;;3.78;1.95;;;;;;;26.10;42.36;98632.16;5094802;28;20032;-78
2021/04/30 10:46:22;;;;;;;1.50;1.40;;;;;;;26.06;42.48;98626.03;5094517;28;20031;-78
2021/04/30 10:49:21;;;;;;;0.38;0.38;;;;;;;26.01;41.17;98607.84;5074754;28;20033;-76
2021/04/30 10:52:30;;;;;;;2.70;1.02;;;;;;;26.31;47.11;98616.78;5063059;28;20048;-76
2021/04/30 10:55:05;;;;;;;1.10;0.98;;;;;;;26.36;42.67;98622.88;5075652;28;20024;-77
2021/04/30 10:57:51;;;;;;;0.50;0.50;;;;;;;26.39;41.42;98587.81;5094279;28;20028;-75
2021/04/30 11:00:19;;;;;;;4.68;1.15;;;;;;;26.28;41.37;98586.72;5094074;28;20028;-76
2021/04/30 11:02:45;;;;;;;0.55;0.55;;;;;;;26.33;41.55;98585.09;5094447;28;20150;-75
2021/04/30 11:05:17;;;;;;;1.15;0.85;;;;;;;26.10;41.88;98587.56;5094489;28;20110;-74
2021/04/30 11:07:48;;;;;;;0.50;0.50;;;;;;;25.98;41.16;98594.03;5094640;28;20062;-75
2021/04/30 11:10:40;;;;;;;1.27;1.20;;;;;;;25.35;43.00;98541.94;5094607;28;20024;-75
2021/04/30 11:13:16;;;;;;;0.47;0.47;;;;;;;25.62;43.95;98559.72;5095219;28;20046;-76
2021/04/30 11:15:48;;;;;;;0.70;0.70;;;;;;;25.56;42.58;98559.78;5094654;28;20024;-75
2021/04/30 11:18:22;;;;;;;3.15;1.50;;;;;;;25.43;41.18;98535.09;5094568;28;20024;-76
2021/04/30 11:21:02;;;;;;;0.93;0.75;;;;;;;25.91;41.00;98576.41;5095964;28;20463;-75
2021/04/30 11:23:46;;;;;;;0.75;0.75;;;;;;;26.13;42.82;98580.06;5094507;28;20063;-75
2021/04/30 11:26:12;;;;;;;0.73;0.73;;;;;;;26.02;42.41;98572.56;5094857;28;20032;-76
2021/04/30 11:28:37;;;;;;;0.32;0.32;;;;;;;25.82;41.29;98539.25;5094606;28;20024;-77
2021/04/30 11:31:07;;;;;;;4.47;1.67;;;;;;;25.75;42.98;98532.19;5093950;28;20055;-77
2021/04/30 11:33:35;;;;;;;0.60;0.60;;;;;;;25.83;44.74;98555.69;5094436;28;20051;-77